createdAt,value
2018-07-23T00:00:28.994Z,19
2018-07-23T00:05:31.439Z,19
2018-07-23T00:10:33.724Z,19
2018-07-23T00:15:36.233Z,20
2018-07-23T00:20:38.632Z,19
2018-07-23T00:25:41.190Z,19
2018-07-23T00:30:43.581Z,20
2018-07-23T00:35:45.985Z,19
2018-07-23T00:40:48.435Z,19
2018-07-23T00:45:51.066Z,21
2018-07-23T00:50:53.341Z,21
2018-07-23T00:55:55.770Z,21
2018-07-23T01:00:58.202Z,23
2018-07-23T01:06:00.632Z,23
2018-07-23T01:11:03.178Z,24
2018-07-23T01:16:05.870Z,23.5
2018-07-23T01:21:08.082Z,22
2018-07-23T01:26:10.415Z,22
2018-07-23T01:31:12.842Z,22
2018-07-23T01:36:15.342Z,24
2018-07-23T01:41:17.762Z,24.5
2018-07-23T01:46:20.185Z,24
2018-07-23T01:51:22.852Z,25
2018-07-23T01:56:25.085Z,26
2018-07-23T02:01:27.515Z,25
2018-07-23T02:06:30.096Z,24
2018-07-23T02:11:32.444Z,25
2018-07-23T02:16:34.850Z,26
2018-07-23T02:21:37.396Z,26
2018-07-23T02:26:39.783Z,25.5
2018-07-23T02:31:42.210Z,27
2018-07-23T02:36:44.631Z,27
2018-07-23T02:41:47.099Z,28
2018-07-23T02:46:49.520Z,27
2018-07-23T02:51:52.010Z,27
2018-07-23T02:56:54.413Z,28
2018-07-23T03:01:57.217Z,28
2018-07-23T03:06:59.673Z,27
2018-07-23T03:12:03.310Z,27
2018-07-23T03:17:04.492Z,26
2018-07-23T03:22:06.667Z,27
2018-07-23T03:27:09.205Z,26
2018-07-23T03:32:12.118Z,26
2018-07-23T03:37:14.011Z,25
2018-07-23T03:42:17.017Z,26
2018-07-23T03:47:18.904Z,26
2018-07-23T03:52:21.679Z,27
2018-07-23T03:57:24.658Z,28
2018-07-23T04:02:27.282Z,26
2018-07-23T04:07:28.730Z,26
2018-07-23T04:17:33.547Z,27
2018-07-23T04:22:35.990Z,25
2018-07-23T04:27:38.428Z,25
2018-07-23T04:32:41.028Z,25
2018-07-23T04:37:43.362Z,25
2018-07-23T04:42:45.803Z,25
2018-07-23T04:47:48.221Z,25
2018-07-23T04:52:50.698Z,24
2018-07-23T04:57:53.210Z,24
2018-07-23T05:02:55.810Z,23.5
2018-07-23T05:07:58.231Z,24
2018-07-23T05:13:00.591Z,24
2018-07-23T05:18:02.899Z,23
2018-07-23T05:23:05.353Z,23
2018-07-23T05:28:07.873Z,24
2018-07-23T05:33:10.287Z,24.5
2018-07-23T05:38:12.760Z,24
2018-07-23T05:43:15.159Z,25
2018-07-23T05:48:20.331Z,24
2018-07-23T05:53:20.106Z,21
2018-07-23T05:58:22.478Z,20
2018-07-23T06:03:24.926Z,21
2018-07-23T06:08:27.366Z,22
2018-07-23T06:13:30.268Z,21
2018-07-23T06:18:32.272Z,21
2018-07-23T06:23:34.711Z,17
2018-07-23T06:28:37.642Z,18
2018-07-23T06:33:39.634Z,17
2018-07-23T06:38:42.052Z,18
2018-07-23T06:43:45.083Z,19
2018-07-23T06:48:46.955Z,16
2018-07-23T06:53:49.412Z,15
2018-07-23T06:58:51.840Z,14
2018-07-23T07:03:54.518Z,15
2018-07-23T07:08:56.724Z,14
2018-07-23T07:13:59.232Z,13
2018-07-23T07:19:02.144Z,15
2018-07-23T07:24:04.125Z,17
2018-07-23T07:29:06.501Z,15
2018-07-23T07:34:09.525Z,15
2018-07-23T07:39:11.568Z,13
2018-07-23T07:54:18.767Z,14
2018-07-23T07:59:21.193Z,16
2018-07-23T08:04:23.644Z,14
2018-07-23T08:09:26.096Z,13
2018-07-23T08:14:28.558Z,13
2018-07-23T08:19:31.012Z,12
2018-07-23T08:24:33.430Z,12
2018-07-23T08:29:36.016Z,10
2018-07-23T08:39:40.819Z,8
2018-07-23T08:44:43.302Z,7.5
2018-07-23T08:49:45.664Z,8
2018-07-23T08:54:48.108Z,7
2018-07-23T08:59:50.671Z,7
2018-07-23T09:04:53.057Z,7
2018-07-23T09:09:55.459Z,8
2018-07-23T09:14:57.946Z,7.5
2018-07-23T09:20:00.551Z,7
2018-07-23T09:25:02.865Z,7
2018-07-23T09:30:05.620Z,8
2018-07-23T09:35:07.820Z,8
2018-07-23T09:40:10.363Z,8
2018-07-23T09:45:13.005Z,7
2018-07-23T09:50:15.467Z,8
2018-07-23T09:55:17.520Z,7
2018-07-23T10:00:20.029Z,9
2018-07-23T10:05:22.373Z,6
2018-07-23T10:10:24.917Z,7
2018-07-23T10:15:27.329Z,7
2018-07-23T10:20:29.850Z,6
2018-07-23T10:25:32.210Z,6
2018-07-23T10:30:34.725Z,7
2018-07-23T10:35:37.078Z,6
2018-07-23T10:40:39.519Z,7
2018-07-23T10:45:42.182Z,7
2018-07-23T10:50:44.393Z,6
2018-07-23T10:55:46.845Z,7
2018-07-23T11:00:49.370Z,6
2018-07-23T11:05:51.751Z,5
2018-07-23T11:10:54.238Z,6
2018-07-23T11:15:56.939Z,7
2018-07-23T11:20:59.114Z,8
2018-07-23T11:26:01.803Z,7
2018-07-23T11:31:03.999Z,6
2018-07-23T11:36:06.689Z,5
2018-07-23T11:41:08.888Z,6
2018-07-23T11:46:24.423Z,5
2018-07-23T11:51:14.027Z,5
2018-07-23T11:56:16.272Z,5
2018-07-23T12:01:18.670Z,6
2018-07-23T12:06:21.124Z,6
2018-07-23T12:11:23.589Z,5
2018-07-23T12:16:26.015Z,6
2018-07-23T12:21:28.432Z,6
2018-07-23T12:26:31.200Z,4
2018-07-23T12:31:33.386Z,5
2018-07-23T12:36:35.773Z,5
2018-07-23T12:41:38.273Z,6
2018-07-23T12:46:40.726Z,7
2018-07-23T12:51:43.189Z,6
2018-07-23T12:56:45.606Z,6
2018-07-23T13:01:48.038Z,6
2018-07-23T13:06:50.478Z,6
2018-07-23T13:11:53.049Z,6
2018-07-23T13:16:55.366Z,5
2018-07-23T13:21:57.790Z,6
2018-07-23T13:32:02.925Z,6
2018-07-23T13:37:05.147Z,6
2018-07-23T13:42:07.757Z,7
2018-07-23T13:47:10.557Z,6
2018-07-23T13:52:12.551Z,6
2018-07-23T13:57:15.079Z,6
2018-07-23T14:02:17.450Z,6
2018-07-23T14:12:22.291Z,6
2018-07-23T14:17:24.710Z,7
2018-07-23T14:22:27.254Z,6
2018-07-23T14:27:29.679Z,6
2018-07-23T14:32:32.169Z,6
2018-07-23T14:37:34.521Z,5
2018-07-23T14:42:36.980Z,8
2018-07-23T14:47:39.449Z,7
2018-07-23T14:52:41.828Z,7
2018-07-23T14:57:44.339Z,7
2018-07-23T15:02:46.767Z,7
2018-07-23T15:07:49.300Z,6
2018-07-23T15:12:51.767Z,7
2018-07-23T15:17:54.127Z,6
2018-07-23T15:22:56.618Z,5
2018-07-23T15:27:59.006Z,5
2018-07-23T15:33:01.868Z,6
2018-07-23T15:38:03.873Z,6
2018-07-23T15:43:06.478Z,6
2018-07-23T15:48:08.968Z,6
2018-07-23T15:53:11.198Z,5
2018-07-23T15:58:13.771Z,5
2018-07-23T16:03:17.091Z,6
2018-07-23T16:08:18.605Z,6
2018-07-23T16:13:21.028Z,6
2018-07-23T16:18:23.543Z,6
2018-07-23T16:23:25.902Z,7
2018-07-23T16:28:28.446Z,7
2018-07-23T16:33:31.102Z,5
2018-07-23T16:38:33.273Z,5.5
2018-07-23T16:43:35.888Z,5
2018-07-23T16:48:38.122Z,6
2018-07-23T16:53:40.773Z,5
2018-07-23T16:58:43.295Z,6
2018-07-23T17:03:45.511Z,6
2018-07-23T17:08:47.937Z,5
2018-07-23T17:13:50.458Z,4
2018-07-23T17:18:53.256Z,5
2018-07-23T17:23:55.360Z,6
2018-07-23T17:28:57.762Z,8
2018-07-23T17:34:00.131Z,4
2018-07-23T17:39:02.618Z,4
2018-07-23T17:44:05.077Z,4
2018-07-23T17:49:07.555Z,4
2018-07-23T17:54:09.915Z,4
2018-07-23T17:59:12.523Z,5
2018-07-23T18:04:15.232Z,6
2018-07-23T18:09:17.254Z,6.5
2018-07-23T18:14:19.688Z,5
2018-07-23T18:19:22.367Z,5
2018-07-23T18:24:24.612Z,6
2018-07-23T18:29:27.306Z,5
2018-07-23T18:34:29.849Z,6
2018-07-23T18:39:32.202Z,6
2018-07-23T18:44:34.878Z,4.5
2018-07-23T18:49:36.971Z,8
2018-07-23T18:54:39.328Z,5
2018-07-23T18:59:41.832Z,5
2018-07-23T19:04:44.321Z,5
2018-07-23T19:09:46.648Z,8.5
2018-07-23T19:49:03.558Z,5
2018-07-23T19:54:06.148Z,6
2018-07-23T19:59:08.422Z,5
2018-07-23T20:04:10.875Z,7
2018-07-23T20:09:13.505Z,7
2018-07-23T20:14:15.753Z,6
2018-07-23T20:19:18.655Z,5
2018-07-23T20:24:20.921Z,6
2018-07-23T20:29:23.097Z,7
2018-07-23T20:34:25.553Z,9
2018-07-23T20:39:28.024Z,7
2018-07-23T20:44:30.398Z,9
2018-07-23T20:49:32.874Z,6
2018-07-23T20:54:35.279Z,7
2018-07-23T20:59:37.720Z,8
2018-07-23T21:04:40.234Z,7
2018-07-23T21:09:42.811Z,7
2018-07-23T21:14:45.187Z,7
2018-07-23T21:19:47.563Z,6
2018-07-23T21:24:50.067Z,7
2018-07-23T21:29:52.498Z,7
2018-07-23T21:34:54.845Z,8
2018-07-23T21:39:57.691Z,7
2018-07-23T21:44:59.939Z,7
2018-07-23T21:50:08.052Z,8
2018-07-23T21:55:04.628Z,9
2018-07-23T22:00:07.214Z,7
2018-07-23T22:05:09.499Z,8
2018-07-23T22:10:12.413Z,8
2018-07-23T22:15:14.469Z,8
2018-07-23T22:20:16.786Z,9
2018-07-23T22:25:19.301Z,10
2018-07-23T22:30:21.681Z,9
2018-07-23T22:35:24.110Z,9
2018-07-23T22:40:26.598Z,9
2018-07-23T22:45:29.026Z,9
2018-07-23T22:50:31.469Z,9
2018-07-23T22:55:33.856Z,9
2018-07-23T23:00:36.307Z,9
2018-07-23T23:05:38.819Z,9
2018-07-23T23:10:41.172Z,10
2018-07-23T23:15:43.714Z,10
2018-07-23T23:20:46.267Z,10
2018-07-23T23:25:48.494Z,10
2018-07-23T23:30:51.025Z,9
2018-07-23T23:35:53.502Z,10
2018-07-23T23:40:55.898Z,9
2018-07-23T23:45:58.351Z,9
2018-07-23T23:51:00.996Z,10
2018-07-23T23:56:03.460Z,11
